Time;durP1;ratioP1;P1;durP2;ratioP2;P2;SDS_P1;SDS_P2;PMS_P1;PMS_P2;Temp;Humidity;BMP_temperature;BMP_pressure;BME280_temperature;BME280_humidity;BME280_pressure;Samples;Min_cycle;Max_cycle;Signal;HPM_P1;HPM_P2
2021/04/26 07:04:13;;;;;;;10.10;6.38;;;;;;;;;;6148598;22;1158758;-45
2021/04/26 07:06:39;;;;;;;12.73;6.05;;;;;;;;;;6260238;22;20019;-44
2021/04/26 07:09:06;;;;;;;9.15;6.82;;;;;;;;;;6268005;22;20053;-46
2021/04/26 07:11:32;;;;;;;9.43;6.45;;;;;;;;;;6265648;22;20034;-47
2021/04/26 07:13:58;;;;;;;12.05;6.93;;;;;;;;;;6267589;22;20400;-49
2021/04/26 07:16:24;;;;;;;7.90;5.88;;;;;;;;;;6269232;22;20131;-40
2021/04/26 07:18:50;;;;;;;9.52;6.53;;;;;;;;;;6270733;22;19999;-47
2021/04/26 07:21:16;;;;;;;8.20;5.95;;;;;;;;;;6268042;22;20020;-46
2021/04/26 07:23:42;;;;;;;8.88;5.63;;;;;;;;;;6270723;22;19996;-46
2021/04/26 07:26:09;;;;;;;7.72;5.85;;;;;;;;;;6268323;22;20433;-45
2021/04/26 07:28:35;;;;;;;8.80;4.95;;;;;;;;;;6271279;22;20091;-43
2021/04/26 07:31:01;;;;;;;7.47;5.30;;;;;;;;;;6267892;22;20087;-45
2021/04/26 07:33:27;;;;;;;7.32;5.28;;;;;;;;;;6271082;22;20095;-49
2021/04/26 07:35:54;;;;;;;5.30;4.28;;;;;;;;;;6272454;22;20000;-45
2021/04/26 07:38:20;;;;;;;6.05;4.47;;;;;;;;;;6270598;22;20097;-46
2021/04/26 07:40:46;;;;;;;7.88;4.20;;;;;;;;;;6270061;22;20389;-45
2021/04/26 07:43:12;;;;;;;6.95;4.00;;;;;;;;;;6272062;22;19995;-47
2021/04/26 07:45:39;;;;;;;6.40;3.87;;;;;;;;;;6272589;22;20000;-46
2021/04/26 07:48:05;;;;;;;4.93;3.75;;;;;;;;;;6272668;22;20149;-48
2021/04/26 07:50:31;;;;;;;8.00;3.83;;;;;;;;;;6271960;22;20007;-45
2021/04/26 07:52:57;;;;;;;5.25;3.35;;;;;;;;;;6270816;22;20004;-44
2021/04/26 07:55:24;;;;;;;5.47;3.30;;;;;;;;;;6270113;22;20298;-45
2021/04/26 07:57:50;;;;;;;4.85;3.30;;;;;;;;;;6271343;22;20018;-47
2021/04/26 08:00:17;;;;;;;6.18;3.30;;;;;;;;;;6269156;22;20098;-49
2021/04/26 08:02:43;;;;;;;5.22;3.20;;;;;;;;;;6269048;22;20095;-47
2021/04/26 08:05:10;;;;;;;4.75;3.38;;;;;;;;;;6270736;22;20404;-47
2021/04/26 08:07:36;;;;;;;6.10;3.07;;;;;;;;;;6271309;22;20360;-46
2021/04/26 08:10:03;;;;;;;4.97;2.90;;;;;;;;;;6272895;22;19996;-44
2021/04/26 08:12:29;;;;;;;3.65;2.60;;;;;;;;;;6271525;22;20011;-47
2021/04/26 08:14:55;;;;;;;3.70;2.70;;;;;;;;;;6272602;22;19996;-47
2021/04/26 08:17:21;;;;;;;4.18;3.00;;;;;;;;;;6270952;22;20408;-46
2021/04/26 08:19:48;;;;;;;5.82;2.85;;;;;;;;;;6273280;22;20003;-44
2021/04/26 08:22:14;;;;;;;8.00;2.92;;;;;;;;;;6270653;22;20149;-42
2021/04/26 08:24:40;;;;;;;3.55;2.75;;;;;;;;;;6272748;22;20079;-44
2021/04/26 08:27:07;;;;;;;3.40;2.95;;;;;;;;;;6273183;22;19999;-44
2021/04/26 08:29:33;;;;;;;3.37;2.47;;;;;;;;;;6273569;22;19996;-43
2021/04/26 08:31:59;;;;;;;3.97;2.92;;;;;;;;;;6270386;22;20222;-45
2021/04/26 08:34:25;;;;;;;6.78;3.20;;;;;;;;;;6270836;22;20003;-43
2021/04/26 08:36:51;;;;;;;4.05;2.65;;;;;;;;;;6271361;22;20008;-42
2021/04/26 08:39:18;;;;;;;4.20;2.40;;;;;;;;;;6273152;22;20000;-45
2021/04/26 08:41:45;;;;;;;3.88;2.50;;;;;;;;;;6271686;22;20018;-44
2021/04/26 08:44:11;;;;;;;4.75;2.78;;;;;;;;;;6270765;22;20008;-44
2021/04/26 08:46:41;;;;;;;4.47;2.75;;;;;;;;;;6272158;22;20121;-46
2021/04/26 08:49:10;;;;;;;4.90;2.58;;;;;;;;;;6272651;22;20377;-45
2021/04/26 08:51:38;;;;;;;4.97;2.72;;;;;;;;;;6269619;22;20151;-45
2021/04/26 08:54:04;;;;;;;5.63;2.47;;;;;;;;;;6269651;22;20292;-44
2021/04/26 08:56:31;;;;;;;2.83;2.03;;;;;;;;;;6272503;22;20023;-44
2021/04/26 08:58:57;;;;;;;3.78;2.58;;;;;;;;;;6270197;22;20305;-44
2021/04/26 09:01:23;;;;;;;3.33;2.55;;;;;;;;;;6271831;22;20000;-43
2021/04/26 09:03:49;;;;;;;3.88;2.70;;;;;;;;;;6272192;22;20061;-45
2021/04/26 09:06:15;;;;;;;2.85;2.30;;;;;;;;;;6269780;22;20027;-43
2021/04/26 09:08:51;;;;;;;3.10;2.25;;;;;;;;;;6270598;22;20412;-45
2021/04/26 09:11:17;;;;;;;2.85;2.20;;;;;;;;;;6272348;22;20019;-45
2021/04/26 09:13:49;;;;;;;4.03;2.35;;;;;;;;;;6272692;22;20007;-46
2021/04/26 09:16:22;;;;;;;3.83;2.67;;;;;;;;;;6271934;22;20004;-46
2021/04/26 09:19:01;;;;;;;2.67;2.13;;;;;;;;;;6273243;22;20040;-46
2021/04/26 09:21:27;;;;;;;5.45;2.58;;;;;;;;;;6272614;22;20405;-46
2021/04/26 09:24:12;;;;;;;3.33;2.28;;;;;;;;;;6271857;22;20027;-47
2021/04/26 09:26:39;;;;;;;3.22;2.40;;;;;;;;;;6271965;22;20003;-47
2021/04/26 09:29:23;;;;;;;5.32;2.50;;;;;;;;;;6272511;22;20071;-47
2021/04/26 09:31:58;;;;;;;3.55;2.25;;;;;;;;;;6272065;22;20006;-45
2021/04/26 09:34:29;;;;;;;3.30;2.22;;;;;;;;;;6271041;22;20037;-46
2021/04/26 09:37:10;;;;;;;3.67;2.35;;;;;;;;;;6270478;22;20408;-45
2021/04/26 09:39:54;;;;;;;4.80;2.50;;;;;;;;;;6270109;22;20007;-44
2021/04/26 09:42:37;;;;;;;4.43;2.40;;;;;;;;;;6271591;22;20003;-45
2021/04/26 09:45:23;;;;;;;3.55;2.05;;;;;;;;;;6269895;22;20001;-45
2021/04/26 09:48:09;;;;;;;4.17;2.50;;;;;;;;;;6272389;22;19995;-45
2021/04/26 09:50:48;;;;;;;5.72;2.30;;;;;;;;;;6269698;22;20090;-45
2021/04/26 09:53:15;;;;;;;3.83;2.38;;;;;;;;;;6271096;22;20011;-47
2021/04/26 09:55:41;;;;;;;3.90;2.33;;;;;;;;;;6271288;22;20080;-44
2021/04/26 09:58:07;;;;;;;12.70;3.47;;;;;;;;;;6269175;22;20122;-47
2021/04/26 10:00:33;;;;;;;6.18;2.75;;;;;;;;;;6271960;22;19996;-45
2021/04/26 10:03:00;;;;;;;5.78;2.60;;;;;;;;;;6271935;22;20007;-47
2021/04/26 10:05:26;;;;;;;6.40;3.30;;;;;;;;;;6271830;22;20007;-45
2021/04/26 10:07:53;;;;;;;5.85;3.45;;;;;;;;;;6271211;22;20411;-44
2021/04/26 10:10:19;;;;;;;6.27;3.70;;;;;;;;;;6271609;22;20048;-46
2021/04/26 10:12:45;;;;;;;13.20;4.65;;;;;;;;;;6271312;22;20014;-45
2021/04/26 10:15:12;;;;;;;13.13;4.80;;;;;;;;;;6271216;22;20007;-46
2021/04/26 10:17:39;;;;;;;15.52;4.65;;;;;;;;;;6271492;22;19996;-45
2021/04/26 10:20:06;;;;;;;7.93;4.63;;;;;;;;;;6271644;22;20396;-45
2021/04/26 10:22:37;;;;;;;10.17;4.87;;;;;;;;;;6271155;22;20077;-46
2021/04/26 10:25:04;;;;;;;12.90;4.65;;;;;;;;;;6270535;22;20332;-46
2021/04/26 10:27:31;;;;;;;7.43;4.43;;;;;;;;;;6271807;22;20006;-46
2021/04/26 10:30:03;;;;;;;7.43;4.50;;;;;;;;;;6272268;22;20004;-46
2021/04/26 10:32:29;;;;;;;10.57;4.40;;;;;;;;;;6271074;22;20271;-47
2021/04/26 10:34:56;;;;;;;7.45;4.65;;;;;;;;;;6269297;22;20004;-46
2021/04/26 10:37:25;;;;;;;7.80;4.20;;;;;;;;;;6270593;22;20006;-46
2021/04/26 10:40:00;;;;;;;8.00;4.60;;;;;;;;;;6270814;22;20058;-46
2021/04/26 10:42:47;;;;;;;6.32;4.35;;;;;;;;;;6271075;22;20004;-46
2021/04/26 10:45:13;;;;;;;;;;;;;;;;;;6270095;22;20182;-46
2021/04/26 10:47:46;;;;;;;8.02;4.25;;;;;;;;;;6268780;22;19899;-44
2021/04/26 10:50:14;;;;;;;9.88;4.30;;;;;;;;;;6270021;22;20004;-47
2021/04/26 10:52:45;;;;;;;5.72;4.72;;;;;;;;;;6270698;22;20285;-47
2021/04/26 10:55:11;;;;;;;7.80;5.30;;;;;;;;;;6270780;22;20365;-45
2021/04/26 10:57:39;;;;;;;8.07;5.05;;;;;;;;;;6270908;22;20011;-46
2021/04/26 11:00:26;;;;;;;8.13;5.03;;;;;;;;;;6270255;22;20331;-46
2021/04/26 11:02:55;;;;;;;8.57;5.00;;;;;;;;;;6270895;22;20026;-45
2021/04/26 11:05:23;;;;;;;8.15;4.72;;;;;;;;;;6269967;22;20011;-46
2021/04/26 11:07:53;;;;;;;7.78;5.18;;;;;;;;;;6268374;22;20317;-46
2021/04/26 11:10:40;;;;;;;6.72;5.03;;;;;;;;;;6270069;22;20157;-47
2021/04/26 11:13:06;;;;;;;;;;;;;;;;;;6273049;22;20065;-45
2021/04/26 11:15:32;;;;;;;5.40;4.05;;;;;;;;;;6270787;22;19918;-44
2021/04/26 11:18:13;;;;;;;5.78;4.55;;;;;;;;;;6270325;22;20004;-46
2021/04/26 11:20:39;;;;;;;6.43;4.60;;;;;;;;;;6270750;22;20082;-46
2021/04/26 11:23:05;;;;;;;7.43;4.77;;;;;;;;;;6270833;22;20092;-47
2021/04/26 11:25:38;;;;;;;6.78;4.72;;;;;;;;;;6271128;22;20219;-46
2021/04/26 11:28:05;;;;;;;6.47;4.63;;;;;;;;;;6273190;22;20010;-46
2021/04/26 11:30:33;;;;;;;7.75;4.65;;;;;;;;;;6271929;22;20012;-46
2021/04/26 11:33:01;;;;;;;6.32;4.43;;;;;;;;;;6272248;22;20026;-46
2021/04/26 11:35:27;;;;;;;8.52;4.43;;;;;;;;;;6270900;22;20306;-46
2021/04/26 11:37:53;;;;;;;9.10;4.38;;;;;;;;;;6269385;22;20003;-46
2021/04/26 11:40:20;;;;;;;7.57;4.50;;;;;;;;;;6271901;22;20082;-45
2021/04/26 11:42:46;;;;;;;;;;;;;;;;;;6272798;22;20154;-47
2021/04/26 11:45:13;;;;;;;5.95;4.45;;;;;;;;;;6271887;22;19902;-46
2021/04/26 11:47:39;;;;;;;5.30;4.05;;;;;;;;;;6272950;22;20044;-45
2021/04/26 11:50:07;;;;;;;7.32;4.60;;;;;;;;;;6274046;22;20070;-45
2021/04/26 11:52:34;;;;;;;6.63;4.35;;;;;;;;;;6272908;22;20042;-45
2021/04/26 11:55:01;;;;;;;6.82;4.68;;;;;;;;;;6271002;22;20004;-45
2021/04/26 11:57:27;;;;;;;7.10;4.32;;;;;;;;;;6273135;22;20012;-44
2021/04/26 12:00:00;;;;;;;7.65;4.20;;;;;;;;;;6272193;22;20000;-45
2021/04/26 12:02:40;;;;;;;5.90;4.10;;;;;;;;;;6272693;22;20070;-43
2021/04/26 12:05:09;;;;;;;6.70;4.38;;;;;;;;;;6270234;22;20349;-47
2021/04/26 12:07:35;;;;;;;8.20;5.22;;;;;;;;;;6272842;22;20421;-47
2021/04/26 12:10:08;;;;;;;6.95;4.22;;;;;;;;;;6272161;22;20398;-45
2021/04/26 12:12:34;;;;;;;7.65;4.32;;;;;;;;;;6269556;22;20012;-42
2021/04/26 12:15:02;;;;;;;8.43;4.47;;;;;;;;;;6271744;22;20075;-42
2021/04/26 12:17:39;;;;;;;7.35;4.20;;;;;;;;;;6271908;22;20043;-43
2021/04/26 12:20:25;;;;;;;6.30;4.18;;;;;;;;;;6271230;22;20007;-46
2021/04/26 12:22:54;;;;;;;4.78;4.05;;;;;;;;;;6271061;22;20015;-48
2021/04/26 12:25:21;;;;;;;7.45;3.90;;;;;;;;;;6272123;22;20011;-45
2021/04/26 12:27:47;;;;;;;;;;;;;;;;;;6273077;22;20004;-45
2021/04/26 12:30:18;;;;;;;5.05;3.60;;;;;;;;;;6266593;22;19960;-46
2021/04/26 12:32:45;;;;;;;5.75;3.67;;;;;;;;;;6270986;22;19999;-48
2021/04/26 12:35:16;;;;;;;4.65;3.42;;;;;;;;;;6268664;22;20099;-46
2021/04/26 12:37:43;;;;;;;5.80;3.00;;;;;;;;;;6271191;22;20109;-45
2021/04/26 12:40:16;;;;;;;4.72;2.88;;;;;;;;;;6272042;22;20004;-48
2021/04/26 12:42:45;;;;;;;5.70;3.10;;;;;;;;;;6271852;22;19999;-47
2021/04/26 12:45:16;;;;;;;5.28;2.80;;;;;;;;;;6272025;22;19999;-48
2021/04/26 12:47:54;;;;;;;5.55;2.75;;;;;;;;;;6272360;22;20042;-47
2021/04/26 12:50:26;;;;;;;7.07;3.13;;;;;;;;;;6270187;22;20041;-45
2021/04/26 12:53:04;;;;;;;3.60;2.47;;;;;;;;;;6271548;22;20429;-45
2021/04/26 12:55:30;;;;;;;3.85;2.70;;;;;;;;;;6270940;22;20349;-47
2021/04/26 12:58:05;;;;;;;4.55;2.50;;;;;;;;;;6272340;22;20006;-47
2021/04/26 13:00:35;;;;;;;5.63;2.67;;;;;;;;;;6272614;22;20437;-44
2021/04/26 13:03:21;;;;;;;3.78;2.55;;;;;;;;;;6271717;22;20060;-45
2021/04/26 13:05:47;;;;;;;3.17;2.50;;;;;;;;;;6269551;22;20011;-44
2021/04/26 13:08:14;;;;;;;3.10;2.40;;;;;;;;;;6269834;22;20012;-45
2021/04/26 13:10:40;;;;;;;2.58;2.38;;;;;;;;;;6269720;22;20027;-45
2021/04/26 13:13:06;;;;;;;5.13;2.43;;;;;;;;;;6272519;22;20097;-45
2021/04/26 13:15:33;;;;;;;4.65;2.47;;;;;;;;;;6269638;22;20054;-45
2021/04/26 13:18:17;;;;;;;3.75;2.35;;;;;;;;;;6269921;22;20004;-43
2021/04/26 13:20:44;;;;;;;3.55;2.20;;;;;;;;;;6270263;22;20004;-43
2021/04/26 13:23:37;;;;;;;3.83;2.15;;;;;;;;;;6271803;22;20163;-43
2021/04/26 13:26:23;;;;;;;3.85;2.30;;;;;;;;;;6265697;22;20099;-44
2021/04/26 13:28:49;;;;;;;2.90;2.00;;;;;;;;;;6270588;22;20035;-48
2021/04/26 13:31:16;;;;;;;4.60;2.25;;;;;;;;;;6271901;22;20114;-44
2021/04/26 13:33:42;;;;;;;3.92;2.33;;;;;;;;;;6271670;22;20007;-46
2021/04/26 13:36:08;;;;;;;3.05;2.13;;;;;;;;;;6269855;22;20004;-45
2021/04/26 13:38:35;;;;;;;3.93;2.30;;;;;;;;;;6271240;22;20123;-48
2021/04/26 13:41:01;;;;;;;2.90;2.10;;;;;;;;;;6271606;22;20079;-47
2021/04/26 13:43:27;;;;;;;3.83;2.10;;;;;;;;;;6271650;22;20066;-48
2021/04/26 13:45:54;;;;;;;3.60;2.28;;;;;;;;;;6271392;22;20004;-45
2021/04/26 13:48:20;;;;;;;2.77;2.07;;;;;;;;;;6271655;22;20027;-43
2021/04/26 13:50:46;;;;;;;3.55;2.00;;;;;;;;;;6271854;22;20091;-45
2021/04/26 13:53:13;;;;;;;2.95;2.13;;;;;;;;;;6271835;22;20008;-43
2021/04/26 13:55:39;;;;;;;2.70;2.00;;;;;;;;;;6269788;22;20010;-44
2021/04/26 13:58:05;;;;;;;4.07;2.03;;;;;;;;;;6272098;22;20022;-46
2021/04/26 14:00:33;;;;;;;8.05;2.95;;;;;;;;;;6271077;22;20026;-48
2021/04/26 14:03:00;;;;;;;4.70;3.50;;;;;;;;;;6270760;22;20000;-46
2021/04/26 14:05:26;;;;;;;5.73;3.60;;;;;;;;;;6271707;22;20008;-47
2021/04/26 14:07:52;;;;;;;8.32;4.55;;;;;;;;;;6270099;22;20064;-47
2021/04/26 14:10:19;;;;;;;6.68;4.30;;;;;;;;;;6269104;22;20012;-46
2021/04/26 14:12:45;;;;;;;6.85;3.80;;;;;;;;;;6270917;22;20003;-46
2021/04/26 14:15:12;;;;;;;5.30;3.70;;;;;;;;;;6271120;22;20031;-48
2021/04/26 14:17:39;;;;;;;4.80;3.38;;;;;;;;;;6270583;22;20510;-47
2021/04/26 14:20:06;;;;;;;4.85;3.38;;;;;;;;;;6271827;22;19996;-46
2021/04/26 14:22:32;;;;;;;3.60;2.90;;;;;;;;;;6271287;22;20007;-46
2021/04/26 14:24:59;;;;;;;4.93;2.75;;;;;;;;;;6271233;22;19995;-47
2021/04/26 14:27:25;;;;;;;5.65;3.28;;;;;;;;;;6269815;22;20000;-47
2021/04/26 14:29:51;;;;;;;4.97;2.70;;;;;;;;;;6270194;22;20011;-48
2021/04/26 14:32:21;;;;;;;4.45;2.80;;;;;;;;;;6271330;22;20000;-46
2021/04/26 14:34:47;;;;;;;3.78;3.00;;;;;;;;;;6269598;22;20075;-48
2021/04/26 14:37:13;;;;;;;3.88;3.03;;;;;;;;;;6271265;22;20026;-46
2021/04/26 14:39:39;;;;;;;4.43;2.70;;;;;;;;;;6270956;22;20003;-46
2021/04/26 14:42:05;;;;;;;5.32;2.67;;;;;;;;;;6268803;22;20000;-45
2021/04/26 14:44:32;;;;;;;3.63;2.75;;;;;;;;;;6270184;22;20290;-45
2021/04/26 14:46:58;;;;;;;4.07;2.42;;;;;;;;;;6271309;22;19996;-48
2021/04/26 14:49:24;;;;;;;5.82;2.78;;;;;;;;;;6270974;22;20027;-46
2021/04/26 14:51:50;;;;;;;5.57;2.58;;;;;;;;;;6270588;22;20044;-45
2021/04/26 14:54:16;;;;;;;3.22;2.22;;;;;;;;;;6269885;22;20012;-45
2021/04/26 14:56:43;;;;;;;3.47;2.35;;;;;;;;;;6270855;22;20072;-46
2021/04/26 14:59:11;;;;;;;4.63;2.58;;;;;;;;;;6270605;22;20057;-47
2021/04/26 15:01:37;;;;;;;5.25;2.60;;;;;;;;;;6270912;22;20196;-44
2021/04/26 15:04:03;;;;;;;4.20;2.78;;;;;;;;;;6271385;22;20023;-45
2021/04/26 15:06:29;;;;;;;4.65;2.05;;;;;;;;;;6271009;22;20022;-46
2021/04/26 15:08:56;;;;;;;3.72;2.30;;;;;;;;;;6267922;22;20432;-46
2021/04/26 15:11:22;;;;;;;3.57;2.20;;;;;;;;;;6268347;22;20101;-50
2021/04/26 15:13:48;;;;;;;3.53;2.58;;;;;;;;;;6268773;22;20602;-46
2021/04/26 15:16:14;;;;;;;5.07;2.53;;;;;;;;;;6270466;22;20018;-50
2021/04/26 15:18:40;;;;;;;3.70;2.25;;;;;;;;;;6270809;22;19996;-44
2021/04/26 15:21:07;;;;;;;3.63;2.58;;;;;;;;;;6268465;22;20106;-44
2021/04/26 15:23:33;;;;;;;3.97;2.88;;;;;;;;;;6268802;22;20075;-46
2021/04/26 15:25:59;;;;;;;5.47;2.83;;;;;;;;;;6269977;22;19999;-46
2021/04/26 15:28:26;;;;;;;4.53;2.97;;;;;;;;;;6269905;22;19996;-46
2021/04/26 15:30:52;;;;;;;3.75;2.55;;;;;;;;;;6268424;22;20031;-49
2021/04/26 15:33:18;;;;;;;4.95;2.97;;;;;;;;;;6270173;22;20008;-48
2021/04/26 15:35:49;;;;;;;4.15;2.47;;;;;;;;;;6271169;22;20329;-48
2021/04/26 15:38:16;;;;;;;3.22;2.53;;;;;;;;;;6269677;22;20000;-45
2021/04/26 15:40:42;;;;;;;3.85;3.05;;;;;;;;;;6270986;22;20003;-43
2021/04/26 15:43:09;;;;;;;7.28;2.97;;;;;;;;;;6269691;22;20004;-42
2021/04/26 15:45:36;;;;;;;5.15;3.35;;;;;;;;;;6271063;22;19996;-42
2021/04/26 15:48:02;;;;;;;5.63;3.27;;;;;;;;;;6271394;22;20000;-43
2021/04/26 15:50:29;;;;;;;6.05;3.20;;;;;;;;;;6270611;22;20004;-42
2021/04/26 15:52:56;;;;;;;3.67;2.80;;;;;;;;;;6270703;22;20396;-42
2021/04/26 15:55:22;;;;;;;;;;;;;;;;;;6267734;22;20093;-41
2021/04/26 15:57:49;;;;;;;6.28;3.00;;;;;;;;;;6272755;22;20046;-41
2021/04/26 16:00:15;;;;;;;4.97;3.08;;;;;;;;;;6271697;22;20378;-41
2021/04/26 16:02:41;;;;;;;3.40;2.70;;;;;;;;;;6274093;22;20000;-39
2021/04/26 16:05:08;;;;;;;6.75;3.22;;;;;;;;;;6272621;22;20250;-44
2021/04/26 16:07:35;;;;;;;3.45;2.75;;;;;;;;;;6272781;22;20011;-50
2021/04/26 16:10:01;;;;;;;5.33;3.13;;;;;;;;;;6270657;22;20011;-50
2021/04/26 16:12:27;;;;;;;5.00;2.80;;;;;;;;;;6272573;22;20511;-50
2021/04/26 16:14:54;;;;;;;6.53;3.42;;;;;;;;;;6273177;22;19999;-50
2021/04/26 16:17:20;;;;;;;5.10;3.20;;;;;;;;;;6272790;22;20057;-49
2021/04/26 16:19:49;;;;;;;3.47;2.70;;;;;;;;;;6270352;22;20007;-51
2021/04/26 16:22:15;;;;;;;5.38;3.15;;;;;;;;;;6272802;22;20064;-49
2021/04/26 16:24:41;;;;;;;10.50;3.00;;;;;;;;;;6272927;22;20016;-50
2021/04/26 16:27:09;;;;;;;4.65;3.00;;;;;;;;;;6273291;22;20038;-52
2021/04/26 16:29:38;;;;;;;5.70;3.25;;;;;;;;;;6271513;22;20373;-50
2021/04/26 16:32:05;;;;;;;4.63;3.47;;;;;;;;;;6272554;22;20011;-53
2021/04/26 16:34:34;;;;;;;3.90;3.42;;;;;;;;;;6272212;22;20454;-50
2021/04/26 16:37:00;;;;;;;5.70;3.13;;;;;;;;;;6272609;22;20007;-53
2021/04/26 19:03:59;;;;;;;18.02;12.13;;;;;;;;;;6239063;22;20072;-43
2021/04/26 19:06:25;;;;;;;15.75;10.52;;;;;;;;;;6240240;22;20405;-43
2021/04/26 19:08:51;;;;;;;14.77;9.70;;;;;;;;;;6240352;22;20040;-43
2021/04/26 19:11:17;;;;;;;14.20;9.27;;;;;;;;;;6240368;23;20012;-42
2021/04/26 19:13:43;;;;;;;13.85;9.15;;;;;;;;;;6238115;23;20481;-50
2021/04/26 19:16:09;;;;;;;14.70;7.97;;;;;;;;;;6240544;23;20086;-47
